Time;durP1;ratioP1;P1;durP2;ratioP2;P2;SDS_P1;SDS_P2;PMS_P1;PMS_P2;Temp;Humidity;BMP_temperature;BMP_pressure;BME280_temperature;BME280_humidity;BME280_pressure;Samples;Min_cycle;Max_cycle;Signal;HPM_P1;HPM_P2
2023/06/23 00:07:20;;;;;;;12.75;6.28;;;;;;;24.66;100.00;100861.22;21006121;28;20086;-83
2023/06/23 00:17:46;;;;;;;10.57;6.50;;;;;;;24.56;100.00;100855.31;20975668;28;20143;-84
2023/06/23 00:28:11;;;;;;;11.18;6.20;;;;;;;24.52;100.00;100842.88;21015521;28;20131;-83
2023/06/23 00:38:34;;;;;;;12.95;5.85;;;;;;;24.51;100.00;100844.72;21047508;28;20048;-83
2023/06/23 00:49:00;;;;;;;10.70;6.25;;;;;;;24.51;100.00;100849.22;20938916;28;20569;-83
2023/06/23 00:59:23;;;;;;;10.25;5.82;;;;;;;24.42;100.00;100850.47;20986038;28;20056;-84
2023/06/23 01:09:59;;;;;;;15.75;6.72;;;;;;;24.36;100.00;100852.53;20992080;28;20076;-83
2023/06/23 01:20:27;;;;;;;12.90;6.53;;;;;;;24.32;100.00;100864.41;20991836;28;20113;-83
2023/06/23 01:30:54;;;;;;;11.05;5.50;;;;;;;24.21;100.00;100859.44;21000728;28;20560;-84
2023/06/23 01:41:23;;;;;;;11.20;6.03;;;;;;;24.20;100.00;100868.47;20970015;28;20530;-83
2023/06/23 01:51:50;;;;;;;9.73;5.82;;;;;;;24.15;100.00;100871.31;20990649;28;20091;-84
2023/06/23 02:02:13;;;;;;;10.50;6.00;;;;;;;24.10;100.00;100867.88;21011774;28;20080;-83
2023/06/23 02:12:41;;;;;;;12.75;6.28;;;;;;;24.07;100.00;100868.03;20998621;28;20052;-84
2023/06/23 02:23:05;;;;;;;11.70;6.77;;;;;;;24.00;100.00;100879.09;20998188;28;20048;-84
2023/06/23 02:33:30;;;;;;;10.00;6.40;;;;;;;23.89;100.00;100882.22;20982626;28;20068;-83
2023/06/23 02:43:54;;;;;;;10.60;6.13;;;;;;;23.78;100.00;100874.50;21002743;28;20100;-83
2023/06/23 02:54:19;;;;;;;11.30;6.38;;;;;;;23.76;100.00;100886.31;21059680;28;20067;-83
2023/06/23 03:04:44;;;;;;;11.48;7.10;;;;;;;23.62;100.00;100894.88;21001588;28;20045;-83
2023/06/23 03:15:10;;;;;;;11.38;6.85;;;;;;;23.57;100.00;100898.66;21048415;28;20464;-81
2023/06/23 03:25:33;;;;;;;14.63;7.00;;;;;;;23.63;100.00;100909.25;21046924;28;20496;-83
2023/06/23 03:36:03;;;;;;;12.82;7.05;;;;;;;23.77;100.00;100917.69;21014407;28;20053;-82
2023/06/23 03:46:30;;;;;;;14.45;6.68;;;;;;;24.00;100.00;100914.16;20977485;28;20056;-82
2023/06/23 03:56:57;;;;;;;10.47;6.33;;;;;;;24.37;100.00;100916.38;21025071;28;20059;-84
2023/06/23 04:07:21;;;;;;;10.38;6.10;;;;;;;24.84;100.00;100928.00;21045821;28;20102;-84
2023/06/23 04:17:47;;;;;;;11.43;5.88;;;;;;;25.27;100.00;100921.72;21006997;28;20056;-84
2023/06/23 04:28:13;;;;;;;11.23;6.53;;;;;;;25.97;100.00;100934.88;21055194;28;20044;-84
2023/06/23 04:38:41;;;;;;;12.55;5.30;;;;;;;26.48;100.00;100937.03;21041716;28;20405;-85
2023/06/23 04:49:07;;;;;;;9.38;5.30;;;;;;;27.06;100.00;100943.25;20930167;28;20501;-84
2023/06/23 04:59:38;;;;;;;10.17;5.13;;;;;;;27.70;100.00;100937.25;20972386;28;20052;-83
2023/06/23 05:10:03;;;;;;;11.18;4.25;;;;;;;28.10;100.00;100941.44;20986437;28;20044;-85
2023/06/23 05:20:28;;;;;;;8.35;4.32;;;;;;;28.64;100.00;100942.97;20976791;28;20068;-84
2023/06/23 05:30:51;;;;;;;10.23;5.22;;;;;;;29.21;100.00;100948.81;20962985;28;20052;-84
2023/06/23 05:41:16;;;;;;;9.38;4.28;;;;;;;29.85;97.10;100948.56;20977268;28;20067;-85
2023/06/23 05:51:41;;;;;;;10.75;5.00;;;;;;;30.26;88.18;100945.13;20964758;28;20106;-84
2023/06/23 06:02:06;;;;;;;8.88;4.85;;;;;;;30.89;82.63;100957.34;20980423;28;20039;-85
2023/06/23 06:12:31;;;;;;;9.00;4.63;;;;;;;31.51;80.01;100949.53;20993216;28;20484;-84
2023/06/23 06:22:56;;;;;;;12.00;4.38;;;;;;;32.06;73.48;100975.78;20981380;28;20309;-85
2023/06/23 06:33:21;;;;;;;7.50;4.45;;;;;;;33.07;70.22;100970.22;20992469;28;20091;-82
2023/06/23 06:43:45;;;;;;;7.47;4.60;;;;;;;33.25;64.50;100980.81;20969809;28;20048;-86
2023/06/23 06:54:08;;;;;;;11.35;4.88;;;;;;;33.68;60.63;100983.84;21011195;28;20044;-85
2023/06/23 07:04:33;;;;;;;9.65;4.82;;;;;;;33.63;58.89;100984.22;21015984;28;20044;-86
2023/06/23 07:14:55;;;;;;;8.80;4.32;;;;;;;33.69;55.67;100989.22;20957084;28;20414;-83
2023/06/23 07:25:20;;;;;;;10.18;4.43;;;;;;;33.21;58.69;100986.50;21009786;28;20071;-85
2023/06/23 07:35:43;;;;;;;10.98;4.55;;;;;;;33.71;58.06;100981.81;20981562;28;20076;-84
2023/06/23 07:46:07;;;;;;;9.60;4.78;;;;;;;34.17;56.17;100981.81;20971270;28;20171;-82
2023/06/23 07:56:30;;;;;;;13.23;4.95;;;;;;;34.47;55.78;100975.75;20971553;28;20098;-85
2023/06/23 08:06:58;;;;;;;8.23;4.50;;;;;;;34.81;52.18;100978.50;20980321;28;20048;-83
2023/06/23 08:17:20;;;;;;;9.43;5.47;;;;;;;34.03;52.21;100981.13;20988233;28;20501;-86
2023/06/23 08:27:29;;;;;;;9.30;4.72;;;;;;;34.75;52.45;100979.88;20995542;28;20142;-87
2023/06/23 08:37:51;;;;;;;7.88;4.45;;;;;;;34.99;49.30;100979.72;20965807;28;20148;-86
2023/06/23 08:48:16;;;;;;;8.85;4.63;;;;;;;35.12;48.13;100974.94;21005645;28;20400;-85
2023/06/23 08:58:40;;;;;;;8.85;4.50;;;;;;;35.33;47.48;100975.06;20954801;28;20554;-86
2023/06/23 09:09:08;;;;;;;9.80;4.97;;;;;;;35.55;45.39;100980.47;20982213;28;20068;-86
2023/06/23 09:19:33;;;;;;;7.68;4.68;;;;;;;35.79;45.38;100983.00;20990170;28;20049;-86
2023/06/23 09:30:04;;;;;;;9.73;5.13;;;;;;;35.28;45.59;100977.31;20969118;28;20047;-87
2023/06/23 09:40:27;;;;;;;10.68;5.07;;;;;;;35.98;42.72;100974.91;20963851;28;20040;-83
2023/06/23 09:51:03;;;;;;;8.50;4.78;;;;;;;36.11;41.02;100982.94;21018141;28;20044;-83
2023/06/23 10:01:25;;;;;;;10.57;4.90;;;;;;;36.27;40.11;100969.63;20948602;28;20057;-85
2023/06/23 10:11:50;;;;;;;7.10;4.55;;;;;;;36.24;38.68;100972.63;20961807;28;20048;-84
2023/06/23 10:22:03;;;;;;;8.07;4.82;;;;;;;36.07;38.42;100963.09;20972755;28;20520;-88
2023/06/23 10:32:29;;;;;;;8.25;4.30;;;;;;;35.86;38.18;100960.34;20987828;28;20044;-84
2023/06/23 10:42:59;;;;;;;10.65;5.97;;;;;;;35.87;37.86;100972.22;20951150;28;20048;-87
2023/06/23 10:53:32;;;;;;;10.10;5.53;;;;;;;36.18;37.45;100963.06;20970104;28;20060;-87
2023/06/23 11:04:03;;;;;;;12.65;5.05;;;;;;;36.40;36.40;100955.66;20983710;28;20051;-85
2023/06/23 11:14:28;;;;;;;9.25;5.35;;;;;;;36.52;36.03;100955.41;20980694;28;20043;-87
2023/06/23 11:24:54;;;;;;;9.70;4.68;;;;;;;36.59;36.03;100948.34;20975768;28;20075;-85
2023/06/23 11:35:18;;;;;;;8.85;5.18;;;;;;;36.15;35.44;100932.19;20972119;28;20048;-84
2023/06/23 11:45:33;;;;;;;8.77;5.03;;;;;;;35.63;34.91;100936.72;20977716;28;20060;-85
2023/06/23 11:55:59;;;;;;;8.35;5.72;;;;;;;35.34;35.22;100931.00;20974182;28;20458;-86
2023/06/23 12:06:23;;;;;;;8.80;5.40;;;;;;;35.01;34.46;100925.56;20936966;28;20041;-85
2023/06/23 12:16:48;;;;;;;10.40;5.53;;;;;;;35.07;34.60;100925.94;20986141;28;20057;-85
2023/06/23 12:27:11;;;;;;;8.50;5.32;;;;;;;35.51;34.30;100916.66;20949747;28;20075;-84
2023/06/23 12:37:47;;;;;;;14.02;5.95;;;;;;;35.63;32.56;100911.13;20966469;28;20056;-87
2023/06/23 12:47:51;;;;;;;10.52;5.47;;;;;;;36.02;33.04;100906.78;21026137;28;20265;-86
2023/06/23 12:58:15;;;;;;;10.03;5.20;;;;;;;36.22;32.47;100901.28;21005942;28;20138;-87
2023/06/23 13:08:37;;;;;;;8.80;5.03;;;;;;;36.49;32.42;100902.56;21012274;28;20492;-87
2023/06/23 13:19:01;;;;;;;8.53;4.90;;;;;;;36.28;32.07;100906.22;21014081;28;20404;-86
2023/06/23 13:29:24;;;;;;;11.60;5.50;;;;;;;36.25;31.58;100890.00;21016254;28;20047;-86
2023/06/23 13:39:48;;;;;;;11.23;5.53;;;;;;;35.93;31.32;100908.47;20986031;28;20048;-85
2023/06/23 13:50:14;;;;;;;11.88;5.22;;;;;;;35.53;32.05;100897.31;20994754;28;20066;-84
2023/06/23 14:00:38;;;;;;;8.57;4.93;;;;;;;35.41;31.87;100899.25;21036431;28;20044;-85
2023/06/23 14:11:01;;;;;;;9.20;5.78;;;;;;;35.37;33.35;100896.91;21014130;28;20040;-87
2023/06/23 14:21:25;;;;;;;9.27;5.68;;;;;;;35.36;33.92;100897.91;21007823;28;20127;-85
2023/06/23 14:31:49;;;;;;;12.05;6.57;;;;;;;35.40;34.15;100897.50;21001002;28;20056;-85
2023/06/23 14:42:13;;;;;;;14.27;6.90;;;;;;;35.43;34.02;100883.50;21019861;28;20056;-86
2023/06/23 14:52:36;;;;;;;12.20;6.07;;;;;;;35.27;33.39;100873.97;21030038;28;20101;-86
2023/06/23 15:03:00;;;;;;;11.55;6.38;;;;;;;34.56;33.57;100869.91;21020061;28;20059;-86
2023/06/23 15:13:24;;;;;;;8.90;5.88;;;;;;;34.21;33.99;100870.91;21006224;28;20049;-84
2023/06/23 15:23:49;;;;;;;12.23;6.25;;;;;;;33.64;35.17;100879.16;20975479;28;20131;-86
2023/06/23 15:34:11;;;;;;;12.90;6.40;;;;;;;32.93;36.59;100862.81;21031529;28;20052;-86
2023/06/23 15:44:35;;;;;;;11.82;6.18;;;;;;;32.06;37.99;100861.00;20970816;28;20045;-84
2023/06/23 15:54:58;;;;;;;10.75;6.20;;;;;;;31.38;39.79;100874.06;20971285;28;20048;-82
2023/06/23 16:05:23;;;;;;;12.40;6.60;;;;;;;30.73;42.50;100891.16;20983817;28;20055;-83
2023/06/23 16:15:46;;;;;;;14.23;6.45;;;;;;;30.30;45.25;100884.88;20974051;28;20091;-83
2023/06/23 16:26:10;;;;;;;11.52;6.93;;;;;;;30.00;48.33;100884.97;21039613;28;20444;-86
2023/06/23 16:36:33;;;;;;;12.70;6.85;;;;;;;29.63;51.40;100886.38;20941135;28;20094;-83
2023/06/23 16:46:58;;;;;;;11.45;7.00;;;;;;;29.43;52.88;100894.00;20918878;28;20497;-83
2023/06/23 16:57:21;;;;;;;11.07;6.80;;;;;;;29.21;53.48;100886.25;20955103;28;20075;-83
2023/06/23 17:07:45;;;;;;;9.85;6.38;;;;;;;28.95;56.07;100898.63;20978224;28;20493;-82
2023/06/23 17:18:08;;;;;;;11.32;7.43;;;;;;;28.60;56.81;100903.38;20972059;28;20066;-83
2023/06/23 17:28:32;;;;;;;15.73;7.53;;;;;;;28.34;59.50;100901.25;20979856;28;20056;-80
2023/06/23 17:38:55;;;;;;;13.88;8.25;;;;;;;28.02;61.65;100898.44;20967484;28;20102;-84
2023/06/23 17:49:19;;;;;;;10.98;7.55;;;;;;;27.73;66.34;100910.84;20942119;28;20069;-81
2023/06/23 17:59:42;;;;;;;13.35;7.78;;;;;;;27.50;71.62;100911.16;20966634;28;20102;-81
2023/06/23 18:10:08;;;;;;;12.43;7.50;;;;;;;27.29;78.47;100917.69;20951766;28;20118;-81
2023/06/23 18:20:31;;;;;;;12.65;7.75;;;;;;;27.14;85.52;100919.34;20951979;28;20478;-79
2023/06/23 18:30:56;;;;;;;13.45;7.90;;;;;;;27.02;86.63;100933.50;20958371;28;20447;-80
2023/06/23 18:41:19;;;;;;;12.88;9.27;;;;;;;26.80;89.86;100947.19;20971934;28;20053;-82
2023/06/23 18:51:44;;;;;;;14.23;8.43;;;;;;;26.50;94.35;100941.44;20985433;28;20131;-80
2023/06/23 19:02:07;;;;;;;16.63;9.18;;;;;;;26.29;96.60;100945.16;20974855;28;20078;-80
2023/06/23 19:12:33;;;;;;;19.60;11.48;;;;;;;26.01;100.00;100948.19;20980068;28;20217;-80
2023/06/23 19:22:56;;;;;;;20.88;13.50;;;;;;;26.00;100.00;100943.72;20960603;28;20056;-79
2023/06/23 19:33:01;;;;;;;17.08;9.65;;;;;;;25.87;100.00;100950.63;20988018;28;20127;-80
2023/06/23 19:43:23;;;;;;;11.95;9.13;;;;;;;25.58;100.00;100948.34;20978355;28;20485;-81
2023/06/23 19:53:48;;;;;;;14.95;9.98;;;;;;;25.18;100.00;100946.44;20979926;28;20052;-82
2023/06/23 20:04:12;;;;;;;14.52;10.40;;;;;;;25.06;100.00;100949.66;21011727;28;20074;-80
2023/06/23 20:14:37;;;;;;;15.05;9.85;;;;;;;25.00;100.00;100943.56;20989320;28;20105;-81
2023/06/23 20:24:59;;;;;;;15.15;9.88;;;;;;;24.75;100.00;100952.66;20970945;28;20057;-82
2023/06/23 20:35:24;;;;;;;17.63;10.13;;;;;;;24.26;100.00;100956.38;20961139;28;20045;-81
2023/06/23 20:45:48;;;;;;;17.10;10.32;;;;;;;24.29;100.00;100951.75;20948247;28;20056;-82
2023/06/23 20:56:12;;;;;;;16.73;10.85;;;;;;;24.10;100.00;100958.72;20951071;28;20048;-83
2023/06/23 21:06:30;;;;;;;;;;;;;;;24.05;100.00;100947.25;20972365;28;20064;-82
2023/06/23 21:16:55;;;;;;;12.95;9.98;;;;;;;23.95;100.00;100951.22;21025121;28;20214;-82
2023/06/23 21:27:17;;;;;;;15.43;10.40;;;;;;;23.72;100.00;100949.34;21016283;28;20044;-82
2023/06/23 21:37:44;;;;;;;15.80;10.60;;;;;;;23.60;100.00;100941.69;20957801;28;20097;-83
2023/06/23 21:48:07;;;;;;;16.95;10.30;;;;;;;23.43;100.00;100936.88;20964612;28;20078;-83
2023/06/23 21:58:32;;;;;;;15.32;10.65;;;;;;;23.19;100.00;100941.25;20950847;28;20338;-82
2023/06/23 22:08:55;;;;;;;15.93;11.23;;;;;;;23.12;100.00;100942.41;21000951;28;20052;-83
2023/06/23 22:19:19;;;;;;;14.20;9.93;;;;;;;22.82;100.00;100932.63;21033229;28;20048;-83
2023/06/23 22:29:41;;;;;;;13.57;10.25;;;;;;;22.75;100.00;100933.75;21006120;28;20051;-81
2023/06/23 22:40:08;;;;;;;15.50;12.05;;;;;;;22.63;100.00;100921.53;21017613;28;20577;-82
2023/06/23 22:50:31;;;;;;;16.15;11.25;;;;;;;22.59;100.00;100909.09;21007442;28;20501;-82
2023/06/23 23:00:55;;;;;;;14.57;10.85;;;;;;;22.35;100.00;100893.72;21000667;28;20052;-82
2023/06/23 23:11:18;;;;;;;14.70;11.70;;;;;;;22.35;100.00;100886.53;21032069;28;20056;-81
2023/06/23 23:21:42;;;;;;;17.15;11.63;;;;;;;22.24;100.00;100868.03;20998136;28;20041;-82
2023/06/23 23:32:06;;;;;;;15.02;12.02;;;;;;;22.23;100.00;100866.28;20978393;28;20447;-82
2023/06/23 23:42:31;;;;;;;20.90;10.65;;;;;;;22.03;100.00;100855.25;20980277;28;20132;-81
2023/06/23 23:52:54;;;;;;;13.57;10.35;;;;;;;22.00;100.00;100847.25;20974098;28;20494;-83
